Time;durP1;ratioP1;P1;durP2;ratioP2;P2;SDS_P1;SDS_P2;PMS_P1;PMS_P2;Temp;Humidity;BMP_temperature;BMP_pressure;BME280_temperature;BME280_humidity;BME280_pressure;Samples;Min_cycle;Max_cycle;Signal;HPM_P1;HPM_P2
2023/07/28 00:00:35;;;;;;;19.48;5.88;;;26.00;71.70;;;;;;5077980;28;20929;-69
2023/07/28 00:03:01;;;;;;;13.98;5.32;;;26.00;71.80;;;;;;5077330;28;20785;-69
2023/07/28 00:05:28;;;;;;;13.68;5.70;;;26.00;71.80;;;;;;5078950;28;20181;-69
2023/07/28 00:07:54;;;;;;;10.63;5.03;;;26.00;71.70;;;;;;5069826;28;20190;-71
2023/07/28 00:10:20;;;;;;;20.85;5.30;;;26.00;71.90;;;;;;5076717;28;20259;-69
2023/07/28 00:12:47;;;;;;;19.85;5.30;;;25.90;72.10;;;;;;5065270;28;20220;-69
2023/07/28 00:15:13;;;;;;;14.45;5.43;;;25.90;72.00;;;;;;5058109;28;20187;-69
2023/07/28 00:17:39;;;;;;;15.40;5.28;;;25.90;72.10;;;;;;5071672;28;20191;-69
2023/07/28 00:20:07;;;;;;;15.57;4.95;;;25.90;72.30;;;;;;5081524;28;20186;-69
2023/07/28 00:22:33;;;;;;;18.70;4.97;;;25.90;72.40;;;;;;5077274;28;20239;-69
2023/07/28 00:25:00;;;;;;;17.73;5.32;;;25.90;72.60;;;;;;5067522;28;20271;-69
2023/07/28 00:27:26;;;;;;;16.77;4.72;;;26.00;72.70;;;;;;5078328;28;20193;-69
2023/07/28 00:29:52;;;;;;;15.48;5.15;;;26.00;72.70;;;;;;5082516;28;20186;-69
2023/07/28 00:32:18;;;;;;;21.67;5.60;;;26.00;72.80;;;;;;5074056;28;20281;-69
2023/07/28 00:34:44;;;;;;;23.65;5.30;;;26.00;73.10;;;;;;5065331;28;20190;-69
2023/07/28 00:37:11;;;;;;;20.73;4.57;;;26.00;72.80;;;;;;5078214;28;20220;-69
2023/07/28 00:39:37;;;;;;;30.05;5.65;;;25.90;73.00;;;;;;5079719;28;20189;-69
2023/07/28 00:42:04;;;;;;;28.77;5.93;;;25.90;72.90;;;;;;5080029;28;20207;-69
2023/07/28 00:44:30;;;;;;;23.60;5.80;;;25.90;73.10;;;;;;5079871;28;20194;-68
2023/07/28 00:46:57;;;;;;;18.48;5.28;;;25.90;73.10;;;;;;5086726;28;20277;-69
2023/07/28 00:49:24;;;;;;;23.63;5.78;;;25.90;73.20;;;;;;5079896;28;20190;-68
2023/07/28 00:51:51;;;;;;;21.80;5.47;;;25.80;72.90;;;;;;5076866;28;20186;-69
2023/07/28 00:54:19;;;;;;;20.60;4.97;;;25.80;73.10;;;;;;5079277;28;20192;-68
2023/07/28 00:56:46;;;;;;;16.50;5.10;;;25.70;73.10;;;;;;5091822;28;20193;-69
2023/07/28 00:59:14;;;;;;;17.67;5.05;;;25.70;73.30;;;;;;5079213;28;20640;-70
2023/07/28 01:01:40;;;;;;;14.05;4.72;;;25.70;73.20;;;;;;5075785;28;20193;-69
2023/07/28 01:04:06;;;;;;;21.45;5.43;;;25.60;73.10;;;;;;5081188;28;20218;-68
2023/07/28 01:06:44;;;;;;;18.08;4.88;;;25.60;73.20;;;;;;5071585;28;20185;-68
2023/07/28 01:09:16;;;;;;;17.67;4.90;;;25.60;73.30;;;;;;5076175;28;20190;-67
2023/07/28 01:11:57;;;;;;;19.73;5.15;;;25.60;73.50;;;;;;5073498;28;20213;-67
2023/07/28 01:14:25;;;;;;;17.60;5.15;;;25.60;73.50;;;;;;5077354;28;20197;-67
2023/07/28 01:16:51;;;;;;;19.73;5.40;;;25.60;73.60;;;;;;5081451;28;20200;-67
2023/07/28 01:19:21;;;;;;;17.07;5.37;;;25.60;73.80;;;;;;5077545;28;20189;-67
2023/07/28 01:22:23;;;;;;;15.55;5.07;;;25.60;73.80;;;;;;5074866;28;20605;-68
2023/07/28 01:25:07;;;;;;;17.60;4.65;;;25.60;73.70;;;;;;5062521;28;20584;-67
2023/07/28 01:27:35;;;;;;;19.63;5.25;;;25.60;73.90;;;;;;5079498;28;20239;-67
2023/07/28 01:30:02;;;;;;;30.45;5.53;;;25.60;74.10;;;;;;5075030;28;20217;-67
2023/07/28 01:32:29;;;;;;;19.67;5.45;;;25.60;74.10;;;;;;5075882;28;20278;-67
2023/07/28 01:34:55;;;;;;;19.58;4.95;;;25.50;74.00;;;;;;5078214;28;20197;-67
2023/07/28 01:37:21;;;;;;;18.17;5.18;;;25.50;74.20;;;;;;5085337;28;20190;-67
2023/07/28 01:39:47;;;;;;;20.67;5.38;;;25.50;74.30;;;;;;5082484;28;20225;-67
2023/07/28 01:42:14;;;;;;;15.53;4.70;;;25.40;74.30;;;;;;5066924;28;20203;-67
2023/07/28 01:44:40;;;;;;;17.00;4.82;;;25.40;74.40;;;;;;5083866;28;20216;-69
2023/07/28 01:47:06;;;;;;;19.00;4.93;;;25.40;74.50;;;;;;5085860;28;20191;-69
2023/07/28 01:49:32;;;;;;;20.00;5.27;;;25.40;74.60;;;;;;5100186;27;20186;-69
2023/07/28 01:51:59;;;;;;;20.55;5.65;;;25.50;74.60;;;;;;5081220;28;20190;-69
2023/07/28 01:54:25;;;;;;;21.23;4.82;;;25.40;74.50;;;;;;5082976;28;20194;-69
2023/07/28 01:56:51;;;;;;;13.90;4.82;;;25.40;75.40;;;;;;5082551;28;20710;-69
2023/07/28 01:59:17;;;;;;;26.35;5.43;;;25.30;74.60;;;;;;5080211;28;20657;-69
2023/07/28 02:01:43;;;;;;;19.40;4.53;;;25.20;74.80;;;;;;5094874;27;20547;-69
2023/07/28 02:04:10;;;;;;;20.50;5.00;;;25.20;74.90;;;;;;5083937;28;20668;-69
2023/07/28 02:06:36;;;;;;;20.55;4.90;;;25.30;75.00;;;;;;5083890;28;20189;-69
2023/07/28 02:09:02;;;;;;;19.73;4.70;;;25.30;75.00;;;;;;5097897;27;20410;-69
2023/07/28 02:11:28;;;;;;;27.35;5.55;;;25.30;75.00;;;;;;5080336;28;20259;-69
2023/07/28 02:13:54;;;;;;;22.23;5.20;;;25.30;75.20;;;;;;5081584;28;20703;-69
2023/07/28 02:16:21;;;;;;;16.33;5.18;;;25.30;75.00;;;;;;5082021;28;20220;-69
2023/07/28 02:18:47;;;;;;;28.90;5.93;;;25.30;75.10;;;;;;5078618;28;20815;-69
2023/07/28 02:21:14;;;;;;;17.08;5.50;;;25.20;75.20;;;;;;5082431;28;20186;-69
2023/07/28 02:23:40;;;;;;;20.17;5.60;;;25.20;76.00;;;;;;5081910;28;20282;-69
2023/07/28 02:26:07;;;;;;;16.00;4.97;;;25.10;75.30;;;;;;5080374;28;20187;-69
2023/07/28 02:28:33;;;;;;;21.70;5.43;;;25.20;75.30;;;;;;5083971;28;20175;-69
2023/07/28 02:30:59;;;;;;;24.33;5.00;;;25.20;75.40;;;;;;5090223;28;20281;-69
2023/07/28 02:33:29;;;;;;;18.50;5.27;;;25.10;75.10;;;;;;5083772;28;20714;-69
2023/07/28 02:35:56;;;;;;;21.53;5.33;;;25.20;75.40;;;;;;5080793;28;20235;-69
2023/07/28 02:38:22;;;;;;;25.70;5.20;;;25.20;75.40;;;;;;5079883;28;20548;-68
2023/07/28 02:40:49;;;;;;;21.25;5.03;;;25.20;75.30;;;;;;5082265;28;20597;-68
2023/07/28 02:43:15;;;;;;;22.60;5.93;;;25.20;75.40;;;;;;5081187;28;20743;-68
2023/07/28 02:45:42;;;;;;;26.30;5.97;;;25.20;75.20;;;;;;5080263;28;20216;-69
2023/07/28 02:48:08;;;;;;;17.07;5.50;;;25.20;75.30;;;;;;5080022;28;20189;-69
2023/07/28 02:50:34;;;;;;;26.10;6.10;;;25.20;75.30;;;;;;5081841;28;20192;-69
2023/07/28 02:53:00;;;;;;;17.23;4.65;;;25.20;75.30;;;;;;5080329;28;20222;-69
2023/07/28 02:55:27;;;;;;;21.13;5.13;;;25.20;75.10;;;;;;5074285;28;20190;-70
2023/07/28 02:57:53;;;;;;;16.43;4.57;;;25.20;75.00;;;;;;5082292;28;20187;-69
2023/07/28 03:00:20;;;;;;;18.93;5.10;;;25.20;74.90;;;;;;5097949;27;20726;-69
2023/07/28 03:02:46;;;;;;;16.37;4.90;;;25.20;74.90;;;;;;5078627;28;20216;-69
2023/07/28 03:05:12;;;;;;;20.55;5.57;;;25.10;74.80;;;;;;5085313;28;20190;-69
2023/07/28 03:07:38;;;;;;;24.43;4.83;;;25.00;74.90;;;;;;5063670;28;20599;-69
2023/07/28 03:10:05;;;;;;;17.48;4.82;;;24.90;75.00;;;;;;5077158;28;20828;-68
2023/07/28 03:12:32;;;;;;;20.67;5.20;;;24.90;75.20;;;;;;5077333;28;20744;-68
2023/07/28 03:14:58;;;;;;;19.27;5.20;;;24.90;75.30;;;;;;5082848;28;20248;-68
2023/07/28 03:17:24;;;;;;;17.53;5.63;;;25.00;75.20;;;;;;5077946;28;20868;-68
2023/07/28 03:19:51;;;;;;;17.65;5.40;;;25.10;75.20;;;;;;5084307;28;20182;-69
2023/07/28 03:22:17;;;;;;;21.97;5.57;;;25.00;75.10;;;;;;5077211;28;20305;-69
2023/07/28 03:24:46;;;;;;;16.05;5.00;;;24.90;75.10;;;;;;5083838;28;20198;-69
2023/07/28 03:27:12;;;;;;;20.33;5.47;;;25.00;75.10;;;;;;5079636;28;20561;-69
2023/07/28 03:29:38;;;;;;;24.50;5.70;;;25.00;75.20;;;;;;5083029;28;20285;-69
2023/07/28 03:32:05;;;;;;;15.60;5.13;;;25.00;75.20;;;;;;5082172;28;20190;-69
2023/07/28 03:34:31;;;;;;;22.03;5.17;;;25.00;75.30;;;;;;5080803;28;20343;-71
2023/07/28 03:36:57;;;;;;;17.07;4.97;;;25.10;75.30;;;;;;5078144;28;20182;-69
2023/07/28 03:39:23;;;;;;;16.43;5.20;;;25.00;75.30;;;;;;5082217;28;20716;-69
2023/07/28 03:41:50;;;;;;;20.50;4.90;;;25.00;75.50;;;;;;5076946;28;20187;-70
2023/07/28 03:44:16;;;;;;;20.27;5.03;;;25.00;75.80;;;;;;5080812;28;20196;-69
2023/07/28 03:46:42;;;;;;;17.23;5.43;;;25.00;75.90;;;;;;5080745;28;20968;-69
2023/07/28 03:49:08;;;;;;;20.60;5.72;;;25.10;75.80;;;;;;5082234;28;20421;-69
2023/07/28 03:51:35;;;;;;;22.83;5.57;;;25.00;76.00;;;;;;5078847;28;20205;-69
2023/07/28 03:54:02;;;;;;;15.88;5.20;;;25.10;76.10;;;;;;5073305;28;20190;-69
2023/07/28 03:56:28;;;;;;;20.45;4.85;;;25.10;76.40;;;;;;5080700;28;20648;-69
2023/07/28 03:58:54;;;;;;;18.75;5.57;;;25.20;76.30;;;;;;5083546;28;20733;-69
2023/07/28 04:01:21;;;;;;;28.37;6.40;;;25.30;76.20;;;;;;5080751;28;20820;-70
2023/07/28 04:03:48;;;;;;;21.08;5.22;;;25.40;75.80;;;;;;5079847;28;20198;-69
2023/07/28 04:06:15;;;;;;;29.40;6.53;;;25.60;75.40;;;;;;5097524;28;20182;-69
2023/07/28 04:08:42;;;;;;;35.30;5.65;;;25.60;75.00;;;;;;5077211;28;20190;-69
2023/07/28 04:11:08;;;;;;;16.95;5.32;;;25.70;75.00;;;;;;5076179;28;20513;-69
2023/07/28 04:13:35;;;;;;;26.05;5.40;;;25.80;75.10;;;;;;5082539;28;20190;-69
2023/07/28 04:16:01;;;;;;;25.63;5.70;;;25.80;75.00;;;;;;5079811;28;20916;-69
2023/07/28 04:18:28;;;;;;;20.08;5.40;;;25.90;75.10;;;;;;5079167;28;20183;-69
2023/07/28 04:20:55;;;;;;;15.10;5.03;;;25.90;75.00;;;;;;5077399;28;20852;-70
2023/07/28 04:23:21;;;;;;;21.98;5.55;;;26.00;75.20;;;;;;5090788;27;20766;-70
2023/07/28 04:25:47;;;;;;;16.83;5.15;;;26.00;75.00;;;;;;5080070;28;20182;-69
2023/07/28 04:28:13;;;;;;;26.40;5.35;;;26.10;75.10;;;;;;5078326;28;20601;-69
2023/07/28 04:30:40;;;;;;;23.02;6.10;;;26.20;75.00;;;;;;5079112;28;20208;-69
2023/07/28 04:33:06;;;;;;;21.35;5.75;;;26.20;74.80;;;;;;5078396;28;20225;-69
2023/07/28 04:35:32;;;;;;;18.55;5.53;;;26.20;75.30;;;;;;5082312;28;20193;-69
2023/07/28 04:37:59;;;;;;;20.65;6.03;;;26.20;76.00;;;;;;5078525;28;20198;-68
2023/07/28 04:40:25;;;;;;;22.20;5.68;;;26.20;76.30;;;;;;5077107;28;20199;-69
2023/07/28 04:42:53;;;;;;;23.30;5.78;;;26.30;76.40;;;;;;5077964;28;20202;-69
2023/07/28 04:45:20;;;;;;;21.25;5.80;;;26.40;76.70;;;;;;5080840;28;20178;-68
2023/07/28 04:47:46;;;;;;;24.25;5.10;;;26.40;77.10;;;;;;5078756;28;20915;-68
2023/07/28 04:50:12;;;;;;;21.48;6.25;;;26.40;77.40;;;;;;5082633;28;20189;-68
2023/07/28 04:52:41;;;;;;;28.90;4.95;;;26.50;78.00;;;;;;5077993;28;20292;-68
2023/07/28 04:55:07;;;;;;;22.33;6.18;;;26.50;78.10;;;;;;5080190;28;20762;-69
2023/07/28 04:57:34;;;;;;;25.75;5.88;;;26.60;78.90;;;;;;5092296;28;20189;-69
2023/07/28 05:00:00;;;;;;;18.83;5.78;;;26.70;80.30;;;;;;5076546;28;20877;-69
2023/07/28 05:02:26;;;;;;;29.55;5.90;;;26.70;81.10;;;;;;5071691;28;20941;-69
2023/07/28 05:04:52;;;;;;;27.10;6.55;;;26.70;80.90;;;;;;5068784;28;20186;-69
2023/07/28 05:07:18;;;;;;;24.33;5.22;;;26.80;81.40;;;;;;5080431;28;20213;-69
2023/07/28 05:09:45;;;;;;;22.25;5.38;;;26.80;80.60;;;;;;5075650;28;20236;-70
2023/07/28 05:12:11;;;;;;;21.58;5.55;;;26.90;80.00;;;;;;5075705;28;20182;-70
2023/07/28 05:14:37;;;;;;;23.38;5.40;;;26.90;79.50;;;;;;5099758;28;20205;-69
2023/07/28 05:17:04;;;;;;;31.45;5.43;;;27.00;78.90;;;;;;5081860;28;20205;-70
2023/07/28 05:19:30;;;;;;;23.02;6.30;;;27.00;78.30;;;;;;5083560;28;20197;-69
2023/07/28 05:21:56;;;;;;;24.30;5.93;;;27.00;78.50;;;;;;5081359;28;20181;-69
2023/07/28 05:24:22;;;;;;;24.33;5.97;;;27.10;78.00;;;;;;5083408;28;20190;-69
2023/07/28 05:26:48;;;;;;;20.30;5.18;;;27.10;78.10;;;;;;5080977;28;20209;-69
2023/07/28 05:29:15;;;;;;;25.25;5.63;;;27.10;77.90;;;;;;5082100;28;20232;-70
2023/07/28 05:31:42;;;;;;;24.40;5.75;;;27.20;77.80;;;;;;5061539;28;20581;-69
2023/07/28 05:34:09;;;;;;;16.80;5.32;;;27.20;77.40;;;;;;5081284;28;20178;-69
2023/07/28 05:36:35;;;;;;;19.15;5.10;;;27.30;77.40;;;;;;5069275;28;20856;-70
2023/07/28 05:39:01;;;;;;;21.02;5.85;;;27.30;77.50;;;;;;5084154;28;20190;-69
2023/07/28 05:41:28;;;;;;;25.25;5.60;;;27.40;77.70;;;;;;5080048;28;20194;-69
2023/07/28 05:43:54;;;;;;;27.48;6.00;;;27.40;78.20;;;;;;5076501;28;20787;-69
2023/07/28 05:46:21;;;;;;;24.83;6.40;;;27.50;78.30;;;;;;5082466;28;20942;-70
2023/07/28 05:48:47;;;;;;;31.80;5.70;;;27.60;78.20;;;;;;5083781;28;20190;-70
2023/07/28 05:51:13;;;;;;;21.10;4.82;;;27.60;78.80;;;;;;5081461;28;20923;-70
2023/07/28 05:53:39;;;;;;;26.30;5.85;;;27.70;78.40;;;;;;5084764;28;20278;-70
2023/07/28 05:56:05;;;;;;;18.63;5.15;;;27.80;78.70;;;;;;5079439;28;20651;-70
2023/07/28 05:58:32;;;;;;;26.20;6.25;;;27.80;79.00;;;;;;5082064;28;20298;-70
2023/07/28 06:00:58;;;;;;;16.67;5.70;;;27.90;78.90;;;;;;5085963;28;20243;-70
2023/07/28 06:03:26;;;;;;;23.05;6.25;;;27.90;78.00;;;;;;5078925;28;20210;-70
2023/07/28 06:05:53;;;;;;;21.63;5.03;;;28.00;77.70;;;;;;5099501;28;20201;-70
2023/07/28 06:08:19;;;;;;;22.20;4.97;;;28.10;76.90;;;;;;5080491;28;20703;-70
2023/07/28 06:10:45;;;;;;;22.95;5.72;;;28.10;77.30;;;;;;5080897;28;20444;-69
2023/07/28 06:13:11;;;;;;;28.13;6.80;;;28.20;78.00;;;;;;5077878;28;20196;-70
2023/07/28 06:15:40;;;;;;;26.08;6.05;;;28.30;78.00;;;;;;5081198;28;20198;-70
2023/07/28 06:18:07;;;;;;;18.45;5.35;;;28.30;78.30;;;;;;5060833;28;20277;-69
2023/07/28 06:20:34;;;;;;;25.50;5.20;;;28.40;77.80;;;;;;5078923;28;20205;-69
2023/07/28 06:23:01;;;;;;;23.58;5.25;;;28.40;77.60;;;;;;5079375;28;20210;-69
2023/07/28 06:25:27;;;;;;;29.55;5.97;;;28.50;77.50;;;;;;5081701;28;20186;-70
2023/07/28 06:27:53;;;;;;;19.77;5.68;;;28.50;77.30;;;;;;5083555;28;20194;-69
2023/07/28 06:30:20;;;;;;;21.20;5.80;;;28.60;76.60;;;;;;5082377;28;20198;-70
2023/07/28 06:32:46;;;;;;;31.40;6.65;;;28.70;76.70;;;;;;5078858;28;20199;-70
2023/07/28 06:35:13;;;;;;;30.77;6.47;;;28.80;74.70;;;;;;5078466;28;20231;-70
2023/07/28 06:37:39;;;;;;;23.13;6.43;;;28.90;75.30;;;;;;5075880;28;20196;-70
2023/07/28 06:40:09;;;;;;;32.80;6.07;;;28.90;75.30;;;;;;5081625;28;20186;-70
2023/07/28 06:42:36;;;;;;;28.23;5.85;;;29.00;76.50;;;;;;5078141;28;20212;-70
2023/07/28 06:45:04;;;;;;;25.73;5.60;;;29.10;76.00;;;;;;5076781;28;20217;-70
2023/07/28 06:47:30;;;;;;;23.58;5.93;;;29.10;76.00;;;;;;5075732;28;20270;-70
2023/07/28 06:49:56;;;;;;;18.23;5.85;;;29.20;76.60;;;;;;5081380;28;20272;-70
2023/07/28 06:52:22;;;;;;;26.10;6.30;;;29.30;75.80;;;;;;5085115;28;20738;-69
2023/07/28 06:54:49;;;;;;;27.83;6.20;;;29.40;76.30;;;;;;5072776;28;20182;-70
2023/07/28 06:57:16;;;;;;;22.30;5.72;;;29.50;76.60;;;;;;5082551;28;20314;-71
2023/07/28 06:59:42;;;;;;;28.55;6.20;;;29.60;77.00;;;;;;5077231;28;20194;-71
2023/07/28 07:02:09;;;;;;;24.77;5.80;;;29.70;76.70;;;;;;5069869;28;20186;-71
2023/07/28 07:04:35;;;;;;;19.08;5.28;;;29.80;77.50;;;;;;5086600;28;20190;-70
2023/07/28 07:07:02;;;;;;;17.83;5.70;;;29.80;77.60;;;;;;5087669;28;20189;-71
2023/07/28 07:09:28;;;;;;;21.75;5.50;;;29.90;78.40;;;;;;5080168;28;20281;-70
2023/07/28 07:11:55;;;;;;;17.30;5.30;;;30.00;79.80;;;;;;5096003;28;20186;-71
2023/07/28 07:14:21;;;;;;;19.13;5.85;;;30.10;80.70;;;;;;5096791;27;20206;-71
2023/07/28 07:16:48;;;;;;;22.05;6.10;;;30.20;80.30;;;;;;5079163;28;20299;-71
2023/07/28 07:19:15;;;;;;;18.85;5.55;;;30.30;81.90;;;;;;5084824;28;20189;-70
2023/07/28 07:21:44;;;;;;;18.98;6.25;;;30.40;83.50;;;;;;5085386;28;20277;-71
2023/07/28 07:24:13;;;;;;;22.65;5.60;;;30.40;84.30;;;;;;5070057;28;20224;-70
2023/07/28 07:26:40;;;;;;;21.60;5.65;;;30.50;85.50;;;;;;5080088;28;20182;-71
2023/07/28 07:29:08;;;;;;;17.40;5.55;;;30.60;86.00;;;;;;5081291;28;20194;-70
2023/07/28 07:31:34;;;;;;;27.80;6.22;;;30.70;88.00;;;;;;5079936;28;20984;-70
2023/07/28 07:34:01;;;;;;;20.48;6.10;;;30.80;88.90;;;;;;5079381;28;20201;-70
2023/07/28 07:36:27;;;;;;;20.65;6.38;;;30.90;90.10;;;;;;5076558;28;20194;-70
2023/07/28 07:38:53;;;;;;;21.45;5.80;;;31.00;90.50;;;;;;5072889;28;20557;-70
2023/07/28 07:41:23;;;;;;;15.23;5.95;;;31.00;90.50;;;;;;5071323;28;20879;-70
2023/07/28 07:43:53;;;;;;;26.08;6.28;;;31.10;90.60;;;;;;5074101;28;20202;-70
2023/07/28 07:46:20;;;;;;;20.80;6.18;;;31.20;89.80;;;;;;5076790;28;20693;-70
2023/07/28 07:48:46;;;;;;;15.77;5.68;;;31.20;88.20;;;;;;5075334;28;20185;-70
2023/07/28 07:51:13;;;;;;;19.70;5.60;;;31.40;89.00;;;;;;5073849;28;20257;-70
2023/07/28 07:53:39;;;;;;;22.25;5.50;;;31.50;90.00;;;;;;5076245;28;20214;-70
2023/07/28 07:56:07;;;;;;;18.17;5.70;;;31.60;87.50;;;;;;5076193;28;20186;-70
2023/07/28 07:58:34;;;;;;;20.85;6.30;;;31.60;86.60;;;;;;5046614;28;20247;-70
2023/07/28 08:01:01;;;;;;;18.50;6.05;;;31.80;86.30;;;;;;5073288;28;20297;-70
2023/07/28 08:03:27;;;;;;;24.98;5.65;;;31.80;83.20;;;;;;5082408;28;20255;-70
2023/07/28 08:05:54;;;;;;;12.50;5.13;;;31.90;80.50;;;;;;5077111;28;20908;-70
2023/07/28 08:08:21;;;;;;;14.63;4.82;;;32.00;78.30;;;;;;5080867;28;20197;-70
2023/07/28 08:10:49;;;;;;;16.58;5.03;;;32.10;77.90;;;;;;5074817;28;20186;-70
2023/07/28 08:13:15;;;;;;;16.17;5.22;;;32.20;76.80;;;;;;5080763;28;20265;-70
2023/07/28 08:15:46;;;;;;;26.60;5.63;;;32.30;73.70;;;;;;5062084;28;20201;-70
2023/07/28 08:18:14;;;;;;;15.95;4.53;;;32.40;73.30;;;;;;5075057;28;20248;-70
2023/07/28 08:20:40;;;;;;;17.05;4.95;;;32.50;71.30;;;;;;5076105;28;20695;-70
2023/07/28 08:23:07;;;;;;;14.38;4.15;;;32.60;72.00;;;;;;5077289;28;20202;-70
2023/07/28 08:25:34;;;;;;;18.52;4.88;;;32.70;70.80;;;;;;5074435;28;20173;-70
2023/07/28 08:28:01;;;;;;;11.02;4.78;;;32.90;71.90;;;;;;5078443;28;20198;-70
2023/07/28 08:30:27;;;;;;;12.35;4.75;;;33.00;72.30;;;;;;5075742;28;20194;-70
2023/07/28 08:32:54;;;;;;;17.10;4.97;;;33.10;69.60;;;;;;5072493;28;20335;-70
2023/07/28 08:35:20;;;;;;;18.50;4.75;;;33.20;69.50;;;;;;5073573;28;20186;-70
2023/07/28 08:37:46;;;;;;;11.93;4.63;;;33.30;73.50;;;;;;5077045;28;20185;-70
2023/07/28 08:40:13;;;;;;;15.00;5.13;;;33.50;74.20;;;;;;5078466;28;20277;-70
2023/07/28 08:42:41;;;;;;;19.88;5.03;;;33.60;75.50;;;;;;5074579;28;20327;-69
2023/07/28 08:45:08;;;;;;;17.25;5.10;;;33.70;77.60;;;;;;5062310;28;20256;-69
2023/07/28 08:47:36;;;;;;;12.95;4.95;;;33.80;81.10;;;;;;5071516;28;20520;-70
2023/07/28 08:50:03;;;;;;;18.13;4.82;;;34.00;84.50;;;;;;5072669;28;20243;-70
2023/07/28 08:52:30;;;;;;;19.92;5.47;;;34.10;86.20;;;;;;5076475;28;20212;-70
2023/07/28 08:54:56;;;;;;;19.15;5.32;;;34.10;84.50;;;;;;5075932;28;20186;-69
2023/07/28 08:57:23;;;;;;;11.60;5.10;;;34.10;84.00;;;;;;5078749;28;20622;-70
2023/07/28 08:59:49;;;;;;;13.60;5.05;;;34.20;80.30;;;;;;5076101;28;20190;-70
2023/07/28 09:02:18;;;;;;;19.65;5.60;;;34.30;83.40;;;;;;5076794;28;20186;-70
2023/07/28 09:04:47;;;;;;;20.88;5.00;;;34.40;84.60;;;;;;5060368;28;20189;-70
2023/07/28 09:07:14;;;;;;;17.15;5.07;;;34.40;83.50;;;;;;5076020;28;20498;-70
2023/07/28 09:09:42;;;;;;;20.60;5.72;;;34.50;84.00;;;;;;5073333;28;20182;-70
2023/07/28 09:12:08;;;;;;;15.52;4.93;;;34.50;85.20;;;;;;5080003;28;20197;-70
2023/07/28 09:14:39;;;;;;;19.05;4.85;;;34.60;89.70;;;;;;5075990;28;20294;-70
2023/07/28 09:17:13;;;;;;;16.35;4.85;;;34.60;87.10;;;;;;5078152;28;20186;-70
2023/07/28 09:19:58;;;;;;;22.40;5.32;;;34.70;89.80;;;;;;5090876;28;20262;-70
2023/07/28 09:22:24;;;;;;;19.02;5.65;;;34.80;89.80;;;;;;5075562;28;20213;-70
2023/07/28 09:24:52;;;;;;;23.73;5.20;;;34.80;91.00;;;;;;5074880;28;20193;-70
2023/07/28 09:27:29;;;;;;;20.27;5.13;;;34.70;92.10;;;;;;5074888;28;20182;-69
2023/07/28 09:29:56;;;;;;;25.88;5.90;;;34.70;93.10;;;;;;5075499;28;20193;-70
2023/07/28 09:32:36;;;;;;;18.45;5.57;;;34.70;92.70;;;;;;5075957;28;20193;-70
2023/07/28 09:35:13;;;;;;;16.27;4.95;;;34.70;93.50;;;;;;5078088;28;20620;-70
2023/07/28 09:37:47;;;;;;;22.45;5.85;;;34.80;93.60;;;;;;5071846;28;20548;-70
2023/07/28 09:40:22;;;;;;;21.15;5.78;;;34.80;94.00;;;;;;5074269;28;20210;-70
2023/07/28 09:42:50;;;;;;;22.85;6.22;;;34.90;94.10;;;;;;5092985;28;20292;-70
2023/07/28 09:45:18;;;;;;;15.40;5.90;;;34.80;93.60;;;;;;5076352;28;20228;-70
2023/07/28 09:47:53;;;;;;;23.30;6.82;;;34.80;93.50;;;;;;5073876;28;20190;-70
2023/07/28 09:50:23;;;;;;;22.27;5.88;;;34.90;93.20;;;;;;5075326;28;20279;-70
2023/07/28 09:53:00;;;;;;;16.25;5.45;;;35.00;94.10;;;;;;5075484;28;20265;-70
2023/07/28 09:55:27;;;;;;;17.95;6.22;;;35.00;94.20;;;;;;5076656;28;20182;-70
2023/07/28 09:57:59;;;;;;;23.25;6.15;;;35.10;94.10;;;;;;5072198;28;20216;-70
2023/07/28 10:00:26;;;;;;;19.67;5.45;;;35.20;94.20;;;;;;5087623;28;20186;-69
2023/07/28 10:02:53;;;;;;;16.83;5.72;;;35.40;94.10;;;;;;5074097;28;20211;-69
2023/07/28 10:05:20;;;;;;;16.30;5.53;;;35.40;93.80;;;;;;5100934;27;20186;-70
2023/07/28 10:07:49;;;;;;;20.48;5.05;;;35.50;93.60;;;;;;5077845;28;20314;-70
2023/07/28 10:10:17;;;;;;;22.90;6.72;;;35.40;93.40;;;;;;5079064;28;20217;-70
2023/07/28 10:12:51;;;;;;;20.55;6.22;;;35.30;93.70;;;;;;5077679;28;20224;-70
2023/07/28 10:15:28;;;;;;;16.05;5.75;;;35.50;93.70;;;;;;5078512;28;20248;-70
2023/07/28 10:17:59;;;;;;;19.30;5.50;;;35.60;93.40;;;;;;5080439;28;20207;-70
2023/07/28 10:20:42;;;;;;;21.08;5.50;;;35.60;93.10;;;;;;5083610;28;20227;-70
2023/07/28 10:23:21;;;;;;;20.00;5.32;;;35.60;93.30;;;;;;5076228;28;20206;-70
2023/07/28 10:25:59;;;;;;;15.85;5.57;;;35.40;93.30;;;;;;5075279;28;20273;-70
2023/07/28 10:28:32;;;;;;;24.35;6.57;;;35.50;93.30;;;;;;5070177;28;20185;-70
2023/07/28 10:31:00;;;;;;;18.45;6.22;;;35.60;93.40;;;;;;5074192;28;20202;-70
2023/07/28 10:33:43;;;;;;;17.48;5.18;;;35.50;93.90;;;;;;5084971;28;20303;-70
2023/07/28 10:36:22;;;;;;;18.75;5.40;;;35.40;94.00;;;;;;5077569;28;20321;-70
2023/07/28 10:39:14;;;;;;;17.85;5.30;;;35.40;93.70;;;;;;5078318;28;20270;-70
2023/07/28 10:42:03;;;;;;;20.52;6.13;;;35.30;94.00;;;;;;5075032;28;20921;-70
2023/07/28 10:44:30;;;;;;;20.27;6.40;;;35.20;94.90;;;;;;5075183;28;20746;-70
2023/07/28 10:46:58;;;;;;;21.95;5.68;;;35.20;95.00;;;;;;5086655;28;20603;-70
2023/07/28 10:49:29;;;;;;;15.98;5.63;;;35.30;95.50;;;;;;5079193;28;20190;-70
2023/07/28 10:51:55;;;;;;;16.33;5.68;;;35.20;95.60;;;;;;5076116;28;20190;-71
2023/07/28 10:54:22;;;;;;;19.38;5.78;;;35.10;96.10;;;;;;5072690;28;20626;-70
2023/07/28 10:56:49;;;;;;;18.02;5.82;;;35.00;95.70;;;;;;5075261;28;20608;-70
2023/07/28 10:59:15;;;;;;;20.33;6.03;;;34.90;95.50;;;;;;5078402;28;20208;-70
2023/07/28 11:01:43;;;;;;;15.88;5.32;;;34.90;95.70;;;;;;5078849;28;20194;-69
2023/07/28 11:04:18;;;;;;;18.67;6.00;;;34.80;95.50;;;;;;5068447;28;20210;-70
2023/07/28 11:06:47;;;;;;;16.58;6.18;;;34.80;95.50;;;;;;5085209;28;20194;-69
2023/07/28 11:09:17;;;;;;;17.30;5.75;;;34.80;95.60;;;;;;5078634;28;20186;-70
2023/07/28 11:11:45;;;;;;;18.52;6.05;;;34.70;95.40;;;;;;5079242;28;20480;-70
2023/07/28 11:14:11;;;;;;;16.05;5.60;;;34.70;95.50;;;;;;5078435;28;20266;-70
2023/07/28 11:16:41;;;;;;;26.38;6.45;;;34.60;95.30;;;;;;5078474;28;20202;-70
2023/07/28 11:19:13;;;;;;;17.65;5.60;;;34.70;95.70;;;;;;5074442;28;20200;-70
2023/07/28 11:21:42;;;;;;;13.88;5.50;;;34.70;95.70;;;;;;5086816;28;20632;-70
2023/07/28 11:24:10;;;;;;;16.75;5.53;;;34.80;95.80;;;;;;5075850;28;20202;-69
2023/07/28 11:26:39;;;;;;;12.98;5.60;;;34.70;96.00;;;;;;5059060;28;20197;-70
2023/07/28 11:29:06;;;;;;;22.60;5.10;;;34.70;95.50;;;;;;5073696;28;20846;-70
2023/07/28 11:31:33;;;;;;;17.35;5.80;;;34.60;95.40;;;;;;5071878;28;20197;-70
2023/07/28 11:34:00;;;;;;;15.32;6.00;;;34.50;95.50;;;;;;5084664;28;20627;-70
2023/07/28 11:36:29;;;;;;;22.85;6.03;;;34.50;95.40;;;;;;5078555;28;20277;-70
2023/07/28 11:38:58;;;;;;;19.20;5.68;;;34.60;95.70;;;;;;5077691;28;20194;-70
2023/07/28 11:41:27;;;;;;;21.35;5.85;;;34.60;94.60;;;;;;5093471;27;20190;-70
2023/07/28 11:43:55;;;;;;;19.95;5.35;;;34.60;94.10;;;;;;5074300;28;20242;-70
2023/07/28 11:46:41;;;;;;;20.70;6.10;;;34.50;93.60;;;;;;5046264;28;20188;-70
2023/07/28 11:49:24;;;;;;;19.70;5.72;;;34.50;95.20;;;;;;5075788;28;20211;-70
2023/07/28 11:51:54;;;;;;;24.70;5.63;;;34.50;93.70;;;;;;5070057;28;20828;-70
2023/07/28 11:54:27;;;;;;;15.57;5.35;;;34.40;93.00;;;;;;5075410;28;20193;-70
2023/07/28 11:56:57;;;;;;;23.35;6.25;;;34.50;94.20;;;;;;5074095;28;20190;-70
2023/07/28 11:59:24;;;;;;;24.05;5.93;;;34.50;93.90;;;;;;5087944;28;20218;-70
2023/07/28 12:01:55;;;;;;;21.52;5.70;;;34.50;93.10;;;;;;5076587;28;20202;-69
2023/07/28 12:04:28;;;;;;;20.83;5.90;;;34.50;93.20;;;;;;5072257;28;20568;-69
2023/07/28 12:07:08;;;;;;;20.60;6.18;;;34.60;92.20;;;;;;5092644;27;20417;-69
2023/07/28 12:09:59;;;;;;;22.17;6.57;;;34.60;92.70;;;;;;5067075;28;20682;-71
2023/07/28 12:12:30;;;;;;;18.65;6.10;;;34.70;93.10;;;;;;5078670;28;20899;-70
2023/07/28 12:15:04;;;;;;;21.70;6.80;;;34.70;92.00;;;;;;5078213;28;20658;-70
2023/07/28 12:17:31;;;;;;;16.10;5.63;;;34.70;92.50;;;;;;5077441;28;20187;-70
2023/07/28 12:20:14;;;;;;;18.15;5.20;;;34.70;92.20;;;;;;5084587;28;20183;-69
2023/07/28 12:22:45;;;;;;;16.58;5.22;;;34.80;91.90;;;;;;5076725;28;20206;-70
2023/07/28 12:25:12;;;;;;;16.92;5.63;;;34.80;91.10;;;;;;5073857;28;20282;-70
2023/07/28 12:27:38;;;;;;;17.83;5.68;;;34.90;91.50;;;;;;5072034;28;20691;-69
2023/07/28 12:30:08;;;;;;;19.10;5.50;;;34.90;91.30;;;;;;5078891;28;20193;-70
2023/07/28 12:32:35;;;;;;;16.42;5.38;;;34.80;91.10;;;;;;5077583;28;20754;-69
2023/07/28 12:35:01;;;;;;;17.83;5.70;;;34.70;90.90;;;;;;5074800;28;20842;-70
2023/07/28 12:37:28;;;;;;;20.40;5.38;;;34.80;90.80;;;;;;5072569;28;20186;-70
2023/07/28 12:39:54;;;;;;;15.77;5.65;;;34.80;90.60;;;;;;5073305;28;20471;-70